createdAt,value
2023-03-14T00:01:36.025Z,1.23
2023-03-14T00:04:05.865Z,1.95
2023-03-14T00:06:32.979Z,1.40
2023-03-14T00:08:59.977Z,1.40
2023-03-14T00:11:27.327Z,1.70
2023-03-14T00:14:12.902Z,1.63
2023-03-14T00:16:40.136Z,1.40
2023-03-14T00:19:07.134Z,1.52
2023-03-14T00:21:36.755Z,1.30
2023-03-14T00:24:03.830Z,1.80
2023-03-14T00:26:30.797Z,1.77
2023-03-14T00:28:57.742Z,2.03
2023-03-14T00:31:25.025Z,1.75
2023-03-14T00:34:10.485Z,1.90
2023-03-14T00:36:37.455Z,1.60
2023-03-14T00:39:04.471Z,1.70
2023-03-14T00:41:31.428Z,1.52
2023-03-14T00:44:16.757Z,1.77
2023-03-14T00:46:43.839Z,1.42
2023-03-14T00:49:29.180Z,1.98
2023-03-14T00:51:56.187Z,1.67
2023-03-14T00:54:23.116Z,2.33
2023-03-14T00:56:50.066Z,1.80
2023-03-14T00:59:18.165Z,1.35
2023-03-14T01:01:45.356Z,1.90
2023-03-14T01:04:32.321Z,2.22
2023-03-14T01:06:59.571Z,1.73
2023-03-14T01:09:26.535Z,1.75
2023-03-14T01:11:53.512Z,1.67
2023-03-14T01:14:20.491Z,2.08
2023-03-14T01:16:54.170Z,1.88
2023-03-14T01:19:21.478Z,1.90
2023-03-14T01:21:48.373Z,1.90
2023-03-14T01:24:33.904Z,2.20
2023-03-14T01:27:00.915Z,2.00
2023-03-14T01:29:48.273Z,2.08
2023-03-14T01:32:15.491Z,2.08
2023-03-14T01:34:42.570Z,2.35
2023-03-14T01:37:12.949Z,1.80
2023-03-14T01:39:40.059Z,1.92
2023-03-14T01:42:07.095Z,2.00
2023-03-14T01:44:54.877Z,1.88
2023-03-14T01:47:22.193Z,2.10
2023-03-14T01:50:11.494Z,1.80
2023-03-14T01:52:44.362Z,2.10
2023-03-14T01:55:15.755Z,1.55
2023-03-14T01:57:47.025Z,1.70
2023-03-14T02:00:20.883Z,1.65
2023-03-14T02:02:51.711Z,1.55
2023-03-14T02:05:24.034Z,1.40
2023-03-14T02:07:54.901Z,1.30
2023-03-14T02:10:25.844Z,1.38
2023-03-14T02:12:55.970Z,1.23
2023-03-14T02:15:23.796Z,1.20
2023-03-14T02:17:52.355Z,1.13
2023-03-14T02:20:26.053Z,1.00
2023-03-14T02:22:53.487Z,1.30
2023-03-14T02:25:41.118Z,1.25
2023-03-14T02:28:09.296Z,1.50
2023-03-14T02:30:54.892Z,1.27
2023-03-14T02:33:24.060Z,1.10
2023-03-14T02:35:59.034Z,1.10
2023-03-14T02:38:38.578Z,1.48
2023-03-14T02:41:23.790Z,1.60
2023-03-14T02:43:50.932Z,1.27
2023-03-14T02:46:36.620Z,1.40
2023-03-14T02:49:08.203Z,1.25
2023-03-14T02:51:36.388Z,1.30
2023-03-14T02:54:06.116Z,1.08
2023-03-14T02:56:33.159Z,1.40
2023-03-14T02:59:00.132Z,1.33
2023-03-14T03:01:45.794Z,1.40
2023-03-14T03:04:12.899Z,1.63
2023-03-14T03:06:48.859Z,1.20
2023-03-14T03:09:18.372Z,1.40
2023-03-14T03:11:57.379Z,1.30
2023-03-14T03:14:24.517Z,1.70
2023-03-14T03:16:51.577Z,1.55
2023-03-14T03:19:18.950Z,1.35
2023-03-14T03:22:04.306Z,1.48
2023-03-14T03:24:31.370Z,1.30
2023-03-14T03:27:16.699Z,2.03
2023-03-14T03:29:43.762Z,1.70
2023-03-14T03:32:10.692Z,1.40
2023-03-14T03:34:37.589Z,2.08
2023-03-14T03:37:04.566Z,2.03
2023-03-14T03:39:31.460Z,1.95
2023-03-14T03:41:58.357Z,1.83
2023-03-14T03:44:25.302Z,2.97
2023-03-14T03:47:10.884Z,1.80
2023-03-14T03:49:38.028Z,2.17
2023-03-14T03:52:13.717Z,1.92
2023-03-14T03:54:40.766Z,2.00
2023-03-14T03:57:07.952Z,2.20
2023-03-14T03:59:35.158Z,1.70
2023-03-14T04:02:21.227Z,1.88
2023-03-14T04:04:48.544Z,1.90
2023-03-14T04:07:15.973Z,1.60
2023-03-14T04:09:43.215Z,1.73
2023-03-14T04:12:12.225Z,1.90
2023-03-14T04:14:39.472Z,1.60
2023-03-14T04:17:06.557Z,1.50
2023-03-14T04:19:33.912Z,1.92
2023-03-14T04:22:00.891Z,1.67
2023-03-14T04:24:27.844Z,2.20
2023-03-14T04:27:13.329Z,1.65
2023-03-14T04:29:40.312Z,2.00
2023-03-14T04:32:26.256Z,2.28
2023-03-14T04:34:53.582Z,2.15
2023-03-14T04:37:20.619Z,2.13
2023-03-14T04:39:47.662Z,1.83
2023-03-14T04:42:14.616Z,1.80
2023-03-14T04:44:59.992Z,2.13
2023-03-14T04:47:27.419Z,1.70
2023-03-14T04:49:54.704Z,1.60
2023-03-14T04:52:21.696Z,1.33
2023-03-14T04:54:48.737Z,1.60
2023-03-14T04:57:18.476Z,1.90
2023-03-14T05:00:00.536Z,1.92
2023-03-14T05:02:27.873Z,1.73
2023-03-14T05:04:54.870Z,2.00
2023-03-14T05:07:21.885Z,1.73
2023-03-14T05:09:49.007Z,1.80
2023-03-14T05:12:16.149Z,1.80
2023-03-14T05:14:49.061Z,1.83
2023-03-14T05:17:16.328Z,2.05
2023-03-14T05:20:01.712Z,1.92
2023-03-14T05:22:28.764Z,1.85
2023-03-14T05:25:00.063Z,2.28
2023-03-14T05:27:27.290Z,2.03
2023-03-14T05:29:54.404Z,2.00
2023-03-14T05:32:21.677Z,2.20
2023-03-14T05:34:48.887Z,2.00
2023-03-14T05:37:15.907Z,2.30
2023-03-14T05:39:42.921Z,2.17
2023-03-14T05:42:10.012Z,2.30
2023-03-14T05:44:55.685Z,1.83
2023-03-14T05:47:23.058Z,2.13
2023-03-14T05:50:05.649Z,2.10
2023-03-14T05:52:32.756Z,2.00
2023-03-14T05:54:59.909Z,2.30
2023-03-14T05:57:27.111Z,1.90
2023-03-14T05:59:54.244Z,1.60
2023-03-14T06:02:21.366Z,2.17
2023-03-14T06:04:48.484Z,1.67
2023-03-14T06:07:15.842Z,1.92
2023-03-14T06:09:42.966Z,1.60
2023-03-14T06:12:29.323Z,1.70
2023-03-14T06:14:56.587Z,1.80
2023-03-14T06:17:42.316Z,2.00
2023-03-14T06:20:10.984Z,1.90
2023-03-14T06:22:39.463Z,1.80
2023-03-14T06:25:07.306Z,1.60
2023-03-14T06:27:35.125Z,1.80
2023-03-14T06:30:05.462Z,1.80
2023-03-14T06:32:32.460Z,1.90
2023-03-14T06:35:02.362Z,1.90
2023-03-14T06:37:30.001Z,2.05
2023-03-14T06:40:03.715Z,2.03
2023-03-14T06:42:30.785Z,1.90
2023-03-14T06:44:57.820Z,2.10
2023-03-14T06:47:24.925Z,1.80
2023-03-14T06:50:11.272Z,1.50
2023-03-14T06:52:42.255Z,1.80
2023-03-14T06:55:27.941Z,1.77
2023-03-14T06:57:55.158Z,1.60
2023-03-14T07:00:31.228Z,2.08
2023-03-14T07:02:58.318Z,1.40
2023-03-14T07:05:25.287Z,1.10
2023-03-14T07:07:52.382Z,1.00
2023-03-14T07:10:19.631Z,0.88
2023-03-14T07:12:46.621Z,0.90
2023-03-14T07:15:18.705Z,1.25
2023-03-14T07:17:51.169Z,1.08
2023-03-14T07:20:18.551Z,1.13
2023-03-14T07:22:48.191Z,1.30
2023-03-14T07:25:15.233Z,1.20
2023-03-14T07:27:44.935Z,1.33
2023-03-14T07:30:12.730Z,1.67
2023-03-14T07:32:39.853Z,1.40
2023-03-14T07:35:07.733Z,1.70
2023-03-14T07:37:34.676Z,1.60
2023-03-14T07:40:01.730Z,2.00
2023-03-14T07:42:28.668Z,1.92
2023-03-14T07:45:04.741Z,2.40
2023-03-14T07:47:31.775Z,2.55
2023-03-14T07:49:58.828Z,1.70
2023-03-14T07:52:29.053Z,1.58
2023-03-14T07:54:56.182Z,1.98
2023-03-14T07:57:23.270Z,1.90
2023-03-14T07:59:50.235Z,2.00
2023-03-14T08:02:23.477Z,2.20
2023-03-14T08:05:10.437Z,2.13
2023-03-14T08:07:37.568Z,2.38
2023-03-14T08:10:23.533Z,1.98
2023-03-14T08:12:52.149Z,1.90
2023-03-14T08:15:19.142Z,2.15
2023-03-14T08:17:46.465Z,2.33
2023-03-14T08:20:16.479Z,2.70
2023-03-14T08:23:02.933Z,2.00
2023-03-14T08:25:30.195Z,1.92
2023-03-14T08:27:57.606Z,2.30
2023-03-14T08:30:24.817Z,1.90
2023-03-14T08:32:54.936Z,2.20
2023-03-14T08:35:21.981Z,1.90
2023-03-14T08:37:53.027Z,2.20
2023-03-14T08:40:20.228Z,1.90
2023-03-14T08:42:47.135Z,2.45
2023-03-14T08:45:16.134Z,2.67
2023-03-14T08:48:01.490Z,2.60
2023-03-14T08:50:28.579Z,2.22
2023-03-14T08:53:13.463Z,2.70
2023-03-14T08:55:40.554Z,2.47
2023-03-14T08:58:07.503Z,2.58
2023-03-14T09:00:34.470Z,2.80
2023-03-14T09:03:01.458Z,2.30
2023-03-14T09:05:28.414Z,2.13
2023-03-14T09:07:58.027Z,2.53
2023-03-14T09:10:37.489Z,2.40
2023-03-14T09:13:04.478Z,2.33
2023-03-14T09:15:31.384Z,2.78
2023-03-14T09:17:58.774Z,2.50
2023-03-14T09:20:25.786Z,2.47
2023-03-14T09:23:01.630Z,2.38
2023-03-14T09:25:28.621Z,2.33
2023-03-14T09:27:55.572Z,2.40
2023-03-14T09:30:22.651Z,1.95
2023-03-14T09:33:08.427Z,2.30
2023-03-14T09:35:35.627Z,2.00
2023-03-14T09:38:21.836Z,2.20
2023-03-14T09:40:49.850Z,2.20
2023-03-14T09:43:17.434Z,2.40
2023-03-14T09:45:47.184Z,2.35
2023-03-14T09:48:21.660Z,2.85
2023-03-14T09:50:56.247Z,2.67
2023-03-14T09:53:32.444Z,2.70
2023-03-14T09:55:59.496Z,2.50
2023-03-14T09:58:27.831Z,3.15
2023-03-14T10:00:57.561Z,2.90
2023-03-14T10:03:33.922Z,2.83
2023-03-14T10:06:01.821Z,2.55
2023-03-14T10:08:28.956Z,3.10
2023-03-14T10:10:56.181Z,2.97
2023-03-14T10:13:29.095Z,2.85
2023-03-14T10:16:05.170Z,2.65
2023-03-14T10:18:35.163Z,3.10
2023-03-14T10:21:31.581Z,2.53
2023-03-14T10:24:28.118Z,2.85
2023-03-14T10:26:59.231Z,2.60
2023-03-14T10:29:26.408Z,2.30
2023-03-14T10:31:55.946Z,2.40
2023-03-14T10:34:40.991Z,2.20
2023-03-14T10:37:18.570Z,1.88
2023-03-14T10:39:54.751Z,1.70
2023-03-14T10:42:32.835Z,1.50
2023-03-14T10:45:39.232Z,1.67
2023-03-14T10:48:29.077Z,1.30
2023-03-14T10:51:17.504Z,1.67
2023-03-14T10:53:50.776Z,1.75
2023-03-14T10:56:37.941Z,1.30
2023-03-14T10:59:12.485Z,1.42
2023-03-14T11:02:05.663Z,1.55
2023-03-14T11:04:41.599Z,1.70
2023-03-14T11:07:34.015Z,1.67
2023-03-14T11:10:34.119Z,1.50
2023-03-14T11:13:48.020Z,1.38
2023-03-14T11:16:27.783Z,1.42
2023-03-14T11:19:12.662Z,1.40
2023-03-14T11:21:49.260Z,1.38
2023-03-14T11:24:45.963Z,1.38
2023-03-14T11:27:28.028Z,1.25
2023-03-14T11:30:40.328Z,1.50
2023-03-14T11:33:45.844Z,1.25
2023-03-14T11:36:21.054Z,1.20
2023-03-14T11:38:53.825Z,1.35
2023-03-14T11:41:32.899Z,1.00
2023-03-14T11:44:05.034Z,1.25
2023-03-14T11:46:41.115Z,1.38
2023-03-14T11:49:18.503Z,1.30
2023-03-14T11:51:51.567Z,1.10
2023-03-14T11:54:59.484Z,1.00
2023-03-14T11:57:26.593Z,1.00
2023-03-14T12:00:19.021Z,1.00
2023-03-14T12:03:13.017Z,1.17
2023-03-14T12:06:14.743Z,1.10
2023-03-14T12:08:47.450Z,1.08
2023-03-14T12:11:40.715Z,2.03
2023-03-14T12:14:24.656Z,1.10
2023-03-14T12:17:08.455Z,1.25
2023-03-14T12:19:44.806Z,1.50
2023-03-14T12:22:28.919Z,1.27
2023-03-14T12:25:18.831Z,1.20
2023-03-14T12:28:16.884Z,1.05
2023-03-14T12:30:44.109Z,1.50
2023-03-14T12:33:13.910Z,1.30
2023-03-14T12:35:51.502Z,1.30
2023-03-14T12:39:02.444Z,1.60
2023-03-14T12:41:52.277Z,1.50
2023-03-14T12:44:31.605Z,1.60
2023-03-14T12:47:19.695Z,1.85
2023-03-14T12:49:59.001Z,1.77
2023-03-14T12:52:43.541Z,1.33
2023-03-14T12:55:33.434Z,1.80
2023-03-14T12:58:31.438Z,1.50
2023-03-14T13:01:04.129Z,1.63
2023-03-14T13:03:47.150Z,1.80
2023-03-14T13:06:34.602Z,1.90
2023-03-14T13:09:28.930Z,1.70
2023-03-14T13:12:01.469Z,1.90
2023-03-14T13:14:32.986Z,1.83
2023-03-14T13:17:25.243Z,2.20
2023-03-14T13:19:57.573Z,1.83
2023-03-14T13:22:31.489Z,1.90
2023-03-14T13:25:07.416Z,1.90
2023-03-14T13:27:36.395Z,1.63
2023-03-14T13:30:45.896Z,1.60
2023-03-14T13:33:32.175Z,1.60
2023-03-14T13:36:03.713Z,1.92
2023-03-14T13:38:58.304Z,1.70
2023-03-14T13:41:34.330Z,1.75
2023-03-14T13:44:07.971Z,1.83
2023-03-14T13:46:58.564Z,1.70
2023-03-14T13:49:27.763Z,2.00
2023-03-14T13:51:54.715Z,1.75
2023-03-14T13:54:23.725Z,2.38
2023-03-14T13:57:01.692Z,2.25
2023-03-14T13:59:31.398Z,1.80
2023-03-14T14:02:00.742Z,1.85
2023-03-14T14:04:28.224Z,1.92
2023-03-14T14:07:02.692Z,2.10
2023-03-14T14:09:44.439Z,1.88
2023-03-14T14:12:19.256Z,2.40
2023-03-14T14:15:01.190Z,2.03
2023-03-14T14:17:42.312Z,2.30
2023-03-14T14:20:32.867Z,2.70
2023-03-14T14:23:02.311Z,2.55
2023-03-14T14:25:31.052Z,2.55
2023-03-14T14:27:58.891Z,2.40
2023-03-14T14:30:31.944Z,2.72
2023-03-14T14:33:20.388Z,3.00
2023-03-14T14:35:58.385Z,2.70
2023-03-14T14:38:44.003Z,3.00
2023-03-14T14:41:12.814Z,3.00
2023-03-14T14:44:00.126Z,3.03
2023-03-14T14:46:31.181Z,3.67
2023-03-14T14:49:21.006Z,2.40
2023-03-14T14:51:52.173Z,2.50
2023-03-14T14:54:48.279Z,1.80
2023-03-14T14:57:21.126Z,1.30
2023-03-14T14:59:52.529Z,1.42
2023-03-14T15:02:48.012Z,1.40
2023-03-14T15:05:20.842Z,1.48
2023-03-14T15:07:48.322Z,1.05
2023-03-14T15:10:23.127Z,1.00
2023-03-14T15:12:50.224Z,1.40
2023-03-14T15:15:18.567Z,1.20
2023-03-14T15:17:45.832Z,1.20
2023-03-14T15:20:19.025Z,1.10
2023-03-14T15:22:46.828Z,1.42
2023-03-14T15:25:36.968Z,1.20
2023-03-14T15:28:00.886Z,1.02
2023-03-14T15:30:27.962Z,1.30
2023-03-14T15:32:54.937Z,1.42
2023-03-14T15:35:21.957Z,1.20
2023-03-14T15:37:49.596Z,1.30
2023-03-14T15:40:17.078Z,1.40
2023-03-14T15:42:44.033Z,1.40
2023-03-14T15:45:11.436Z,1.30
2023-03-14T15:47:38.955Z,0.98
2023-03-14T15:50:06.536Z,1.08
2023-03-14T15:52:33.509Z,1.20
2023-03-14T15:55:01.168Z,1.35
2023-03-14T15:57:28.180Z,1.40
2023-03-14T15:59:55.536Z,1.25
2023-03-14T16:02:22.548Z,1.50
2023-03-14T16:04:52.589Z,1.30
2023-03-14T16:07:19.555Z,1.45
2023-03-14T16:09:46.645Z,1.30
2023-03-14T16:12:13.741Z,1.58
2023-03-14T16:14:43.745Z,1.50
2023-03-14T16:17:13.756Z,1.42
2023-03-14T16:19:40.784Z,1.65
2023-03-14T16:22:07.965Z,1.83
2023-03-14T16:24:34.967Z,1.88
2023-03-14T16:27:01.962Z,1.80
2023-03-14T16:29:31.078Z,1.90
2023-03-14T16:31:58.151Z,1.60
2023-03-14T16:34:25.349Z,1.80
2023-03-14T16:37:11.228Z,2.13
2023-03-14T16:39:56.105Z,1.77
2023-03-14T16:42:25.890Z,1.65
2023-03-14T16:44:53.004Z,2.15
2023-03-14T16:47:19.988Z,2.10
2023-03-14T16:49:46.982Z,1.92
2023-03-14T16:52:14.083Z,1.92
2023-03-14T16:54:43.805Z,1.85
2023-03-14T16:57:19.548Z,3.28
2023-03-14T16:59:46.688Z,2.08
2023-03-14T17:02:13.812Z,2.55
2023-03-14T17:04:42.041Z,2.63
2023-03-14T17:07:27.626Z,2.13
2023-03-14T17:09:55.029Z,2.30
2023-03-14T17:12:40.416Z,2.17
2023-03-14T17:15:08.672Z,2.80
2023-03-14T17:17:54.321Z,2.00
2023-03-14T17:20:21.412Z,1.90
2023-03-14T17:22:48.487Z,2.10
2023-03-14T17:25:15.599Z,2.00
2023-03-14T17:27:44.462Z,2.03
2023-03-14T17:30:13.453Z,2.17
2023-03-14T17:32:40.577Z,2.53
2023-03-14T17:35:07.766Z,1.92
2023-03-14T17:37:34.839Z,2.05
2023-03-14T17:40:04.368Z,1.90
2023-03-14T17:42:50.883Z,2.08
2023-03-14T17:45:18.110Z,1.92
2023-03-14T17:47:45.538Z,2.10
2023-03-14T17:50:12.596Z,2.35
2023-03-14T17:53:00.802Z,2.10
2023-03-14T17:55:27.834Z,2.10
2023-03-14T17:57:54.829Z,2.08
2023-03-14T18:00:24.197Z,2.55
2023-03-14T18:02:51.573Z,2.10
2023-03-14T18:05:18.875Z,2.70
2023-03-14T18:07:45.946Z,3.28
2023-03-14T18:10:14.403Z,2.72
2023-03-14T18:12:41.740Z,3.63
2023-03-14T18:15:09.328Z,2.78
2023-03-14T18:17:36.336Z,2.97
2023-03-14T18:20:05.227Z,3.35
2023-03-14T18:22:33.434Z,3.13
2023-03-14T18:25:00.674Z,3.10
2023-03-14T18:27:46.360Z,3.05
2023-03-14T18:30:14.584Z,3.83
2023-03-14T18:32:41.625Z,3.88
2023-03-14T18:35:11.639Z,3.95
2023-03-14T18:37:57.159Z,4.40
2023-03-14T18:40:24.358Z,4.22
2023-03-14T18:42:51.336Z,5.00
2023-03-14T18:45:18.348Z,10.02
2023-03-14T18:47:45.436Z,11.40
2023-03-14T18:50:12.986Z,12.05
2023-03-14T18:52:58.508Z,13.38
2023-03-14T18:55:25.713Z,12.07
2023-03-14T18:57:53.308Z,12.45
2023-03-14T19:00:20.838Z,10.02
2023-03-14T19:02:48.407Z,8.25
2023-03-14T19:05:15.395Z,6.47
2023-03-14T19:08:02.933Z,5.35
2023-03-14T19:10:32.406Z,4.47
2023-03-14T19:12:59.390Z,4.10
2023-03-14T19:15:26.359Z,4.25
2023-03-14T19:18:11.758Z,3.60
2023-03-14T19:20:43.340Z,3.70
2023-03-14T19:23:14.228Z,2.85
2023-03-14T19:25:45.207Z,2.33
2023-03-14T19:28:12.154Z,3.60
2023-03-14T19:30:39.218Z,3.22
2023-03-14T19:33:14.755Z,2.83
2023-03-14T19:35:42.206Z,2.58
2023-03-14T19:38:09.721Z,2.30
2023-03-14T19:40:38.225Z,3.05
2023-03-14T19:43:06.271Z,3.63
2023-03-14T19:45:36.567Z,3.10
2023-03-14T19:48:06.299Z,3.65
2023-03-14T19:50:36.109Z,3.63
2023-03-14T19:53:04.674Z,3.58
2023-03-14T19:55:35.223Z,3.35
2023-03-14T19:58:02.814Z,4.40
2023-03-14T20:00:30.203Z,3.45
2023-03-14T20:02:57.279Z,3.10
2023-03-14T20:05:24.913Z,2.92
2023-03-14T20:07:52.032Z,3.63
2023-03-14T20:10:24.261Z,4.10
2023-03-14T20:12:51.861Z,4.00
2023-03-14T20:15:21.556Z,3.38
2023-03-14T20:17:51.868Z,3.33
2023-03-14T20:20:19.908Z,4.10
2023-03-14T20:22:49.579Z,3.80
2023-03-14T20:25:35.632Z,3.88
2023-03-14T20:28:04.301Z,4.05
2023-03-14T20:30:50.364Z,3.80
2023-03-14T20:33:19.741Z,3.90
2023-03-14T20:35:59.805Z,4.05
2023-03-14T20:38:28.681Z,4.15
2023-03-14T20:41:00.007Z,4.20
2023-03-14T20:43:27.984Z,4.97
2023-03-14T20:45:56.450Z,4.15
2023-03-14T20:48:24.404Z,4.28
2023-03-14T20:50:52.107Z,3.67
2023-03-14T20:53:19.850Z,4.13
2023-03-14T20:55:47.428Z,4.03
2023-03-14T20:58:14.669Z,4.32
2023-03-14T21:00:50.183Z,4.15
2023-03-14T21:03:18.434Z,4.88
2023-03-14T21:05:49.050Z,4.40
2023-03-14T21:08:19.318Z,4.70
2023-03-14T21:10:50.735Z,4.70
2023-03-14T21:13:18.833Z,4.15
2023-03-14T21:15:46.652Z,3.92
2023-03-14T21:18:13.756Z,3.75
2023-03-14T21:20:42.262Z,4.55
2023-03-14T21:23:11.114Z,4.43
2023-03-14T21:25:38.537Z,4.50
2023-03-14T21:28:05.742Z,3.85
2023-03-14T21:30:34.516Z,4.43
2023-03-14T21:33:01.926Z,4.10
2023-03-14T21:35:32.093Z,3.40
2023-03-14T21:37:59.346Z,3.72
2023-03-14T21:40:26.720Z,3.17
2023-03-14T21:43:13.877Z,3.70
2023-03-14T21:45:41.175Z,2.97
2023-03-14T21:48:08.144Z,3.45
2023-03-14T21:50:53.650Z,2.88
2023-03-14T21:53:20.766Z,2.60
2023-03-14T21:55:48.990Z,2.60
2023-03-14T21:58:15.932Z,2.53
2023-03-14T22:01:05.110Z,2.65
2023-03-14T22:03:34.610Z,2.47
2023-03-14T22:06:04.740Z,2.10
2023-03-14T22:08:31.858Z,2.50
2023-03-14T22:10:58.848Z,2.30
2023-03-14T22:13:25.977Z,2.55
2023-03-14T22:15:53.235Z,2.92
2023-03-14T22:18:20.272Z,3.20
2023-03-14T22:20:47.445Z,3.25
2023-03-14T22:23:15.337Z,3.08
2023-03-14T22:25:43.872Z,3.00
2023-03-14T22:28:11.252Z,3.38
2023-03-14T22:30:38.514Z,2.92
2023-03-14T22:33:24.413Z,3.38
2023-03-14T22:35:53.076Z,3.10
2023-03-14T22:38:20.548Z,3.45
2023-03-14T22:40:48.146Z,3.55
2023-03-14T22:43:15.154Z,3.28
2023-03-14T22:45:47.551Z,2.85
2023-03-14T22:48:15.474Z,2.92
2023-03-14T22:50:42.490Z,3.47
2023-03-14T22:53:27.863Z,3.28
2023-03-14T22:55:59.569Z,3.28
2023-03-14T22:58:27.046Z,3.00
2023-03-14T23:00:54.064Z,3.10
2023-03-14T23:03:21.381Z,3.10
2023-03-14T23:05:51.433Z,3.78
2023-03-14T23:08:18.434Z,3.38
2023-03-14T23:10:48.178Z,2.85
2023-03-14T23:13:33.848Z,3.33
2023-03-14T23:16:01.380Z,3.33
2023-03-14T23:18:29.165Z,3.60
2023-03-14T23:21:13.298Z,3.30
2023-03-14T23:23:59.063Z,3.10
2023-03-14T23:26:27.360Z,2.70
2023-03-14T23:28:54.859Z,3.35
2023-03-14T23:31:22.210Z,3.00
2023-03-14T23:33:50.687Z,2.85
2023-03-14T23:36:22.313Z,2.92
2023-03-14T23:38:49.318Z,2.70
2023-03-14T23:41:16.392Z,3.05
2023-03-14T23:43:46.682Z,3.35
2023-03-14T23:46:25.538Z,3.08
2023-03-14T23:49:13.197Z,3.22
2023-03-14T23:51:40.366Z,2.90
2023-03-14T23:54:07.344Z,3.20
2023-03-14T23:56:34.405Z,2.67
2023-03-14T23:59:16.305Z,3.53
